createdAt,value
2018-06-11T00:01:22.547Z,25.00
2018-06-11T00:03:51.699Z,25.00
2018-06-11T00:06:20.906Z,24.90
2018-06-11T00:08:50.095Z,24.80
2018-06-11T00:11:19.301Z,24.80
2018-06-11T00:13:48.467Z,24.70
2018-06-11T00:16:17.646Z,24.60
2018-06-11T00:18:46.939Z,24.60
2018-06-11T00:23:44.930Z,24.50
2018-06-11T00:28:42.829Z,24.40
2018-06-11T00:31:12.002Z,24.40
2018-06-11T00:33:41.614Z,24.40
2018-06-11T00:36:10.762Z,24.40
2018-06-11T00:38:39.950Z,24.30
2018-06-11T00:41:09.091Z,24.30
2018-06-11T00:43:38.250Z,24.30
2018-06-11T00:46:09.435Z,24.30
2018-06-11T00:48:38.611Z,24.30
2018-06-11T00:51:07.771Z,24.20
2018-06-11T00:56:10.166Z,24.20
2018-06-11T00:58:39.379Z,24.20
2018-06-11T01:01:08.531Z,24.20
2018-06-11T01:03:37.698Z,24.20
2018-06-11T01:06:07.378Z,24.30
2018-06-11T01:08:36.531Z,24.30
2018-06-11T01:11:05.708Z,24.40
2018-06-11T01:13:34.907Z,24.40
2018-06-11T01:16:04.091Z,24.30
2018-06-11T01:18:34.247Z,24.20
2018-06-11T01:21:03.442Z,24.10
2018-06-11T01:23:32.622Z,24.20
2018-06-11T01:26:01.791Z,24.10
2018-06-11T01:28:31.395Z,24.00
2018-06-11T01:31:00.570Z,23.90
2018-06-11T01:33:29.755Z,23.90
2018-06-11T01:38:28.270Z,23.70
2018-06-11T01:40:57.422Z,23.60
2018-06-11T01:43:26.622Z,23.60
2018-06-11T01:45:55.771Z,23.50
2018-06-11T01:48:24.928Z,23.50
2018-06-11T01:50:54.351Z,23.40
2018-06-11T01:53:23.508Z,23.40
2018-06-11T01:55:52.670Z,23.30
2018-06-11T01:58:21.863Z,23.30
2018-06-11T02:00:51.071Z,23.40
2018-06-11T02:03:20.251Z,23.30
2018-06-11T02:05:49.443Z,23.40
2018-06-11T02:08:18.603Z,23.40
2018-06-11T02:10:47.767Z,23.30
2018-06-11T02:13:17.707Z,23.10
2018-06-11T02:15:46.887Z,23.10
2018-06-11T02:18:16.099Z,23.00
2018-06-11T02:20:45.338Z,23.00
2018-06-11T02:23:14.539Z,22.90
2018-06-11T02:28:12.510Z,22.80
2018-06-11T02:30:41.678Z,22.80
2018-06-11T02:33:11.127Z,22.80
2018-06-11T02:35:40.772Z,22.70
2018-06-11T02:38:10.439Z,22.70
2018-06-11T02:40:39.607Z,22.60
2018-06-11T02:43:08.806Z,22.60
2018-06-11T02:45:37.981Z,22.60
2018-06-11T02:48:07.194Z,22.60
2018-06-11T02:50:36.379Z,22.60
2018-06-11T02:53:05.586Z,22.60
2018-06-11T02:55:34.784Z,22.60
2018-06-11T02:58:04.970Z,22.50
2018-06-11T03:00:34.167Z,22.50
2018-06-11T03:03:03.463Z,22.50
2018-06-11T03:05:33.026Z,22.40
2018-06-11T03:08:02.237Z,22.40
2018-06-11T03:10:31.427Z,22.40
2018-06-11T03:13:00.638Z,22.40
2018-06-11T03:15:30.775Z,22.30
2018-06-11T03:17:59.998Z,22.30
2018-06-11T03:20:30.251Z,22.30
2018-06-11T03:22:59.432Z,22.40
2018-06-11T03:25:28.627Z,22.40
2018-06-11T03:27:57.828Z,22.40
2018-06-11T03:30:27.010Z,22.40
2018-06-11T03:32:56.178Z,22.30
2018-06-11T03:35:25.375Z,22.30
2018-06-11T03:37:54.546Z,22.30
2018-06-11T03:40:24.082Z,22.30
2018-06-11T03:42:53.491Z,22.30
2018-06-11T03:45:22.952Z,22.30
2018-06-11T03:47:52.110Z,22.30
2018-06-11T03:50:21.331Z,22.30
2018-06-11T03:52:52.431Z,22.30
2018-06-11T03:55:21.599Z,22.30
2018-06-11T03:57:50.809Z,22.30
2018-06-11T04:00:19.978Z,22.20
2018-06-11T04:02:49.886Z,22.20
2018-06-11T04:05:19.483Z,22.30
2018-06-11T04:07:48.651Z,22.30
2018-06-11T04:10:17.824Z,22.30
2018-06-11T04:12:47.039Z,22.40
2018-06-11T04:15:16.201Z,22.50
2018-06-11T04:17:45.383Z,22.40
2018-06-11T04:20:14.573Z,22.40
2018-06-11T04:22:43.751Z,22.40
2018-06-11T04:25:13.398Z,22.40
2018-06-11T04:27:43.500Z,22.40
2018-06-11T04:30:12.671Z,22.40
2018-06-11T04:32:41.846Z,22.50
2018-06-11T04:35:11.035Z,22.50
2018-06-11T04:37:40.221Z,22.50
2018-06-11T04:40:09.438Z,22.50
2018-06-11T04:42:38.867Z,22.60
2018-06-11T04:45:08.208Z,22.60
2018-06-11T04:47:37.374Z,22.70
2018-06-11T04:50:06.747Z,22.80
2018-06-11T04:52:35.926Z,22.80
2018-06-11T04:55:05.131Z,22.90
2018-06-11T04:57:34.327Z,22.90
2018-06-11T05:00:03.606Z,23.00
2018-06-11T05:02:32.751Z,23.00
2018-06-11T05:07:30.689Z,22.90
2018-06-11T05:09:59.898Z,22.90
2018-06-11T05:12:29.375Z,22.80
2018-06-11T05:14:59.321Z,22.80
2018-06-11T05:17:28.500Z,22.80
2018-06-11T05:19:57.691Z,22.90
2018-06-11T05:22:27.048Z,22.90
2018-06-11T05:24:56.213Z,22.90
2018-06-11T05:27:25.441Z,23.00
2018-06-11T05:29:54.815Z,23.10
2018-06-11T05:32:23.988Z,23.10
2018-06-11T05:34:53.714Z,23.10
2018-06-11T05:37:22.909Z,23.10
2018-06-11T05:39:52.170Z,23.20
2018-06-11T05:42:21.347Z,23.20
2018-06-11T05:44:51.019Z,23.20
2018-06-11T05:47:20.383Z,23.20
2018-06-11T05:49:49.618Z,23.20
2018-06-11T05:52:18.780Z,23.30
2018-06-11T05:54:47.987Z,23.30
2018-06-11T05:57:17.316Z,23.40
2018-06-11T05:59:46.513Z,23.50
2018-06-11T06:02:15.663Z,23.60
2018-06-11T06:04:45.119Z,23.60
2018-06-11T06:07:14.258Z,23.80
2018-06-11T06:09:43.427Z,23.80
2018-06-11T06:12:12.632Z,23.90
2018-06-11T06:14:41.804Z,24.00
2018-06-11T06:17:10.984Z,24.20
2018-06-11T06:19:40.512Z,24.30
2018-06-11T06:22:09.727Z,24.50
2018-06-11T06:24:38.907Z,24.60
2018-06-11T06:27:08.140Z,24.80
2018-06-11T06:29:37.303Z,25.00
2018-06-11T06:32:06.811Z,25.10
2018-06-11T06:34:36.241Z,25.20
2018-06-11T06:37:06.580Z,25.30
2018-06-11T06:39:35.768Z,25.30
2018-06-11T06:42:05.440Z,25.30
2018-06-11T06:44:34.619Z,25.30
2018-06-11T06:47:05.310Z,25.30
2018-06-11T06:49:35.291Z,25.30
2018-06-11T06:52:04.446Z,25.20
2018-06-11T06:54:33.623Z,25.20
2018-06-11T06:57:02.820Z,25.20
2018-06-11T06:59:31.990Z,25.10
2018-06-11T07:02:01.150Z,25.10
2018-06-11T07:04:30.671Z,25.00
2018-06-11T07:06:59.823Z,24.90
2018-06-11T07:09:28.991Z,24.80
2018-06-11T07:11:58.215Z,24.70
2018-06-11T07:14:27.388Z,24.60
2018-06-11T07:16:57.176Z,24.50
2018-06-11T07:19:26.376Z,24.40
2018-06-11T07:21:55.827Z,24.40
2018-06-11T07:24:25.005Z,24.40
2018-06-11T07:26:54.995Z,24.20
2018-06-11T07:29:24.163Z,24.00
2018-06-11T07:31:53.334Z,23.80
2018-06-11T07:34:22.654Z,23.70
2018-06-11T07:39:21.308Z,23.70
2018-06-11T07:41:51.031Z,23.80
2018-06-11T07:44:20.223Z,23.90
2018-06-11T07:46:49.435Z,23.90
2018-06-11T07:49:19.446Z,24.00
2018-06-11T07:51:49.377Z,24.00
2018-06-11T07:54:18.567Z,24.10
2018-06-11T07:56:47.891Z,24.20
2018-06-11T08:01:45.821Z,24.60
2018-06-11T08:04:14.999Z,24.80
2018-06-11T08:06:44.189Z,25.10
2018-06-11T08:09:13.331Z,25.20
2018-06-11T08:11:43.515Z,25.20
2018-06-11T08:14:12.704Z,25.30
2018-06-11T08:19:10.602Z,25.20
2018-06-11T08:21:39.762Z,25.10
2018-06-11T08:24:09.727Z,25.00
2018-06-11T08:26:38.970Z,24.90
2018-06-11T08:29:08.138Z,24.90
2018-06-11T08:31:37.351Z,24.80
2018-06-11T08:34:07.006Z,24.70
2018-06-11T08:36:36.215Z,24.70
2018-06-11T08:39:08.555Z,24.70
2018-06-11T08:41:37.831Z,24.70
2018-06-11T08:44:07.022Z,24.80
2018-06-11T08:46:36.258Z,24.80
2018-06-11T08:49:05.667Z,24.90
2018-06-11T08:54:04.502Z,25.00
2018-06-11T08:56:34.245Z,25.10
2018-06-11T08:59:03.487Z,25.10
2018-06-11T09:01:32.671Z,25.00
2018-06-11T09:06:30.727Z,25.20
2018-06-11T09:09:00.121Z,25.40
2018-06-11T09:11:29.929Z,25.50
2018-06-11T09:13:59.094Z,25.60
2018-06-11T09:16:28.520Z,25.70
2018-06-11T09:18:59.091Z,25.70
2018-06-11T09:21:28.253Z,25.80
2018-06-11T09:23:57.440Z,25.90
2018-06-11T09:26:26.593Z,26.10
2018-06-11T09:28:55.794Z,26.20
2018-06-11T09:31:25.007Z,26.30
2018-06-11T09:36:22.919Z,26.40
2018-06-11T09:38:52.527Z,26.50
2018-06-11T09:41:21.665Z,26.70
2018-06-11T09:43:50.870Z,26.80
2018-06-11T09:46:20.415Z,26.90
2018-06-11T09:48:49.566Z,27.10
2018-06-11T09:51:18.746Z,27.40
2018-06-11T09:53:48.151Z,27.50
2018-06-11T09:56:17.326Z,27.60
2018-06-11T09:58:46.476Z,27.60
2018-06-11T10:01:17.154Z,27.70
2018-06-11T10:03:46.418Z,27.80
2018-06-11T10:08:44.372Z,27.70
2018-06-11T10:11:13.543Z,27.70
2018-06-11T10:13:43.301Z,27.80
2018-06-11T10:16:13.983Z,27.80
2018-06-11T10:18:43.215Z,27.90
2018-06-11T10:21:16.601Z,28.00
2018-06-11T10:23:46.731Z,28.20
2018-06-11T10:26:16.056Z,28.30
2018-06-11T10:28:46.000Z,28.60
2018-06-11T10:31:16.511Z,28.70
2018-06-11T10:36:14.406Z,29.00
2018-06-11T10:41:12.307Z,29.40
2018-06-11T10:43:41.597Z,29.60
2018-06-11T10:46:11.051Z,29.90
2018-06-11T10:48:40.242Z,30.10
2018-06-11T10:51:09.423Z,30.20
2018-06-11T10:53:38.572Z,30.30
2018-06-11T10:56:07.779Z,30.30
2018-06-11T10:58:36.974Z,30.10
2018-06-11T11:03:34.926Z,29.60
2018-06-11T11:06:04.503Z,29.30
2018-06-11T11:08:33.686Z,29.00
2018-06-11T11:11:02.875Z,28.80
2018-06-11T11:13:32.082Z,28.60
2018-06-11T11:16:01.310Z,28.40
2018-06-11T11:18:30.794Z,28.20
2018-06-11T11:21:00.100Z,28.10
2018-06-11T11:23:29.263Z,28.00
2018-06-11T11:28:27.475Z,27.70
2018-06-11T11:30:56.659Z,27.60
2018-06-11T11:35:54.611Z,27.40
2018-06-11T11:38:23.779Z,27.30
2018-06-11T11:40:52.978Z,27.30
2018-06-11T11:43:22.167Z,27.20
2018-06-11T11:45:51.548Z,27.20
2018-06-11T11:48:20.730Z,27.10
2018-06-11T11:50:49.974Z,27.10
2018-06-11T11:53:20.287Z,27.00
2018-06-11T11:55:49.963Z,26.90
2018-06-11T12:00:47.947Z,26.90
2018-06-11T12:05:45.997Z,26.80
2018-06-11T12:08:15.263Z,26.70
2018-06-11T12:10:44.435Z,26.70
2018-06-11T12:13:13.750Z,26.70
2018-06-11T12:15:42.927Z,26.70
2018-06-11T12:18:12.102Z,26.70
2018-06-11T12:20:41.411Z,26.70
2018-06-11T12:23:10.602Z,26.70
2018-06-11T12:25:39.813Z,26.70
2018-06-11T12:28:09.095Z,26.80
2018-06-11T12:30:38.632Z,26.90
2018-06-11T12:33:07.934Z,27.00
2018-06-11T12:38:06.740Z,27.40
2018-06-11T12:40:36.133Z,27.40
2018-06-11T12:43:05.367Z,27.40
2018-06-11T12:45:34.563Z,27.30
2018-06-11T12:48:03.758Z,27.20
2018-06-11T12:50:32.971Z,27.20
2018-06-11T12:53:02.301Z,27.10
2018-06-11T12:55:31.503Z,27.10
2018-06-11T12:58:00.787Z,27.20
2018-06-11T13:00:29.953Z,27.30
2018-06-11T13:02:59.127Z,27.40
2018-06-11T13:05:28.322Z,27.50
2018-06-11T13:07:57.541Z,27.60
2018-06-11T13:12:55.714Z,27.90
2018-06-11T13:15:24.891Z,28.10
2018-06-11T13:17:54.054Z,28.30
2018-06-11T13:20:23.588Z,28.60
2018-06-11T13:25:21.569Z,29.40
2018-06-11T13:27:51.043Z,29.90
2018-06-11T13:30:20.223Z,30.10
2018-06-11T13:32:49.421Z,30.00
2018-06-11T13:35:18.684Z,30.10
2018-06-11T13:37:48.379Z,30.10
2018-06-11T13:40:17.543Z,30.10
2018-06-11T13:42:46.801Z,30.20
2018-06-11T13:45:15.991Z,30.30
2018-06-11T13:47:45.218Z,30.60
2018-06-11T13:50:14.538Z,30.90
2018-06-11T13:52:44.143Z,30.90
2018-06-11T13:55:13.323Z,30.80
2018-06-11T13:57:42.967Z,30.90
2018-06-11T14:00:12.146Z,31.20
2018-06-11T14:02:41.303Z,31.40
2018-06-11T14:05:10.863Z,31.40
2018-06-11T14:07:40.053Z,31.10
2018-06-11T14:10:09.235Z,30.70
2018-06-11T14:12:38.431Z,30.50
2018-06-11T14:15:07.627Z,30.20
2018-06-11T14:17:36.820Z,30.00
2018-06-11T14:20:06.062Z,30.00
2018-06-11T14:22:35.224Z,30.00
2018-06-11T14:25:04.475Z,30.10
2018-06-11T14:27:34.470Z,30.10
2018-06-11T14:30:03.727Z,30.00
2018-06-11T14:32:32.978Z,29.80
2018-06-11T14:35:02.175Z,29.50
2018-06-11T14:37:32.283Z,29.40
2018-06-11T14:40:01.491Z,29.10
2018-06-11T14:42:30.754Z,29.00
2018-06-11T14:45:00.021Z,28.90
2018-06-11T14:47:29.564Z,28.80
2018-06-11T14:49:59.102Z,28.70
2018-06-11T14:52:28.303Z,28.70
2018-06-11T14:54:58.122Z,28.60
2018-06-11T14:57:28.627Z,28.60
2018-06-11T14:59:58.251Z,28.50
2018-06-11T15:02:27.568Z,28.40
2018-06-11T15:04:56.745Z,28.30
2018-06-11T15:07:25.965Z,28.20
2018-06-11T15:09:55.163Z,28.30
2018-06-11T15:12:24.975Z,28.40
2018-06-11T15:14:54.142Z,28.40
2018-06-11T15:17:23.377Z,28.40
2018-06-11T15:19:52.769Z,28.50
2018-06-11T15:22:21.937Z,28.60
2018-06-11T15:24:54.170Z,28.60
2018-06-11T15:27:23.474Z,28.50
2018-06-11T15:29:52.671Z,28.40
2018-06-11T15:32:22.819Z,28.30
2018-06-11T15:34:57.981Z,28.10
2018-06-11T15:37:27.150Z,28.00
2018-06-11T15:39:56.522Z,27.90
2018-06-11T15:42:25.803Z,27.80
2018-06-11T15:44:54.993Z,27.70
2018-06-11T15:47:24.463Z,27.60
2018-06-11T15:49:54.963Z,27.60
2018-06-11T15:54:53.207Z,27.50
2018-06-11T15:57:22.647Z,27.40
2018-06-11T15:59:54.050Z,27.30
2018-06-11T16:02:23.693Z,27.20
2018-06-11T16:04:53.715Z,27.20
2018-06-11T16:07:22.935Z,27.10
2018-06-11T16:09:52.819Z,27.10
2018-06-11T16:12:22.579Z,27.00
2018-06-11T16:14:51.810Z,26.90
2018-06-11T16:17:21.247Z,26.90
2018-06-11T16:19:51.464Z,26.80
2018-06-11T16:22:20.687Z,26.70
2018-06-11T16:24:51.023Z,26.60
2018-06-11T16:29:49.375Z,26.40
2018-06-11T16:32:19.163Z,26.30
2018-06-11T16:34:48.556Z,26.20
2018-06-11T16:37:18.509Z,26.20
2018-06-11T16:39:47.722Z,26.20
2018-06-11T16:42:16.911Z,26.10
2018-06-11T16:44:46.110Z,26.00
2018-06-11T16:47:15.327Z,25.90
2018-06-11T16:49:44.607Z,25.90
2018-06-11T16:52:14.058Z,25.80
2018-06-11T16:54:43.223Z,25.80
2018-06-11T16:57:12.548Z,25.70
2018-06-11T17:02:10.983Z,25.60
2018-06-11T17:04:40.174Z,25.60
2018-06-11T17:07:09.367Z,25.50
2018-06-11T17:09:38.705Z,25.50
2018-06-11T17:12:07.885Z,25.50
2018-06-11T17:14:37.133Z,25.40
2018-06-11T17:17:06.340Z,25.30
2018-06-11T17:19:35.603Z,25.30
2018-06-11T17:22:05.182Z,25.20
2018-06-11T17:24:34.371Z,25.20
2018-06-11T17:27:03.847Z,25.10
2018-06-11T17:29:33.039Z,25.20
2018-06-11T17:34:30.973Z,25.10
2018-06-11T17:37:00.459Z,24.90
2018-06-11T17:39:29.639Z,24.70
2018-06-11T17:41:58.806Z,24.60
2018-06-11T17:44:28.100Z,24.60
2018-06-11T17:46:58.651Z,24.50
2018-06-11T17:49:28.750Z,24.40
2018-06-11T17:51:57.970Z,24.30
2018-06-11T17:54:27.503Z,24.20
2018-06-11T17:56:56.637Z,24.20
2018-06-11T17:59:25.815Z,24.10
2018-06-11T18:01:55.022Z,24.10
2018-06-11T18:04:24.340Z,24.00
2018-06-11T18:06:53.574Z,24.00
2018-06-11T18:11:51.507Z,23.90
2018-06-11T18:14:20.714Z,23.80
2018-06-11T18:16:50.535Z,23.80
2018-06-11T18:19:19.771Z,23.60
2018-06-11T18:24:18.338Z,23.50
2018-06-11T18:26:47.506Z,23.40
2018-06-11T18:29:17.179Z,23.40
2018-06-11T18:31:46.364Z,23.30
2018-06-11T18:34:16.790Z,23.30
2018-06-11T18:36:46.094Z,23.30
2018-06-11T18:39:15.402Z,23.30
2018-06-11T18:41:44.662Z,23.30
2018-06-11T18:44:13.846Z,23.30
2018-06-11T18:46:43.298Z,23.30
2018-06-11T18:49:12.502Z,23.30
2018-06-11T18:51:46.883Z,23.20
2018-06-11T18:54:16.116Z,23.20
2018-06-11T18:56:45.523Z,23.10
2018-06-11T18:59:14.755Z,23.10
2018-06-11T19:01:44.023Z,23.00
2018-06-11T19:04:13.407Z,22.90
2018-06-11T19:06:42.626Z,22.90
2018-06-11T19:09:11.804Z,22.80
2018-06-11T19:11:40.981Z,22.70
2018-06-11T19:14:10.230Z,22.70
2018-06-11T19:16:39.443Z,22.80
2018-06-11T19:19:08.629Z,22.80
2018-06-11T19:21:38.886Z,22.70
2018-06-11T19:24:08.038Z,22.70
2018-06-11T19:26:37.223Z,22.60
2018-06-11T19:29:06.452Z,22.60
2018-06-11T19:31:35.625Z,22.60
2018-06-11T19:34:04.822Z,22.60
2018-06-11T19:39:03.291Z,22.50
2018-06-11T19:41:32.599Z,22.40
2018-06-11T19:44:01.807Z,22.40
2018-06-11T19:46:30.976Z,22.30
2018-06-11T19:49:00.170Z,22.30
2018-06-11T19:51:29.386Z,22.30
2018-06-11T19:53:58.585Z,22.20
2018-06-11T19:56:28.141Z,22.20
2018-06-11T19:58:57.541Z,22.20
2018-06-11T20:01:26.776Z,22.20
2018-06-11T20:03:55.960Z,22.10
2018-06-11T20:06:25.676Z,22.00
2018-06-11T20:08:54.815Z,22.00
2018-06-11T20:11:24.023Z,22.00
2018-06-11T20:13:53.235Z,22.10
2018-06-11T20:16:22.432Z,22.20
2018-06-11T20:18:51.607Z,22.30
2018-06-11T20:21:21.267Z,22.20
2018-06-11T20:23:50.451Z,22.10
2018-06-11T20:26:19.630Z,22.00
2018-06-11T20:28:48.859Z,22.00
2018-06-11T20:31:18.059Z,22.00
2018-06-11T20:33:47.255Z,22.00
2018-06-11T20:36:16.527Z,22.00
2018-06-11T20:38:45.699Z,21.90
2018-06-11T20:41:15.753Z,21.90
2018-06-11T20:43:45.611Z,21.90
2018-06-11T20:46:14.963Z,21.90
2018-06-11T20:48:44.158Z,21.90
2018-06-11T20:51:13.384Z,21.90
2018-06-11T20:53:42.579Z,22.00
2018-06-11T20:56:11.778Z,21.90
2018-06-11T20:58:41.705Z,21.90
2018-06-11T21:01:10.971Z,21.80
2018-06-11T21:03:40.278Z,21.80
2018-06-11T21:06:09.967Z,21.80
2018-06-11T21:08:39.483Z,21.80
2018-06-11T21:11:08.759Z,21.80
2018-06-11T21:13:38.043Z,21.70
2018-06-11T21:16:07.532Z,21.70
2018-06-11T21:18:36.859Z,21.70
2018-06-11T21:21:06.106Z,21.70
2018-06-11T21:23:35.359Z,21.70
2018-06-11T21:26:04.595Z,21.60
2018-06-11T21:28:33.891Z,21.70
2018-06-11T21:33:31.891Z,21.60
2018-06-11T21:36:01.095Z,21.60
2018-06-11T21:38:30.280Z,21.60
2018-06-11T21:40:59.655Z,21.60
2018-06-11T21:43:28.879Z,21.60
2018-06-11T21:45:58.179Z,21.60
2018-06-11T21:48:27.390Z,21.60
2018-06-11T21:50:56.863Z,21.50
2018-06-11T21:53:26.366Z,21.50
2018-06-11T21:55:55.571Z,21.50
2018-06-11T21:58:24.806Z,21.40
2018-06-11T22:00:53.998Z,21.50
2018-06-11T22:05:52.137Z,21.50
2018-06-11T22:08:21.313Z,21.50
2018-06-11T22:10:50.995Z,21.50
2018-06-11T22:13:20.963Z,21.50
2018-06-11T22:15:50.150Z,21.40
2018-06-11T22:18:19.429Z,21.40
2018-06-11T22:20:48.740Z,21.40
2018-06-11T22:23:17.935Z,21.40
2018-06-11T22:25:47.121Z,21.30
2018-06-11T22:28:16.355Z,21.30
2018-06-11T22:30:45.543Z,21.40
2018-06-11T22:33:14.731Z,21.40
2018-06-11T22:35:44.387Z,21.30
2018-06-11T22:38:13.586Z,21.30
2018-06-11T22:40:42.792Z,21.30
2018-06-11T22:43:12.083Z,21.30
2018-06-11T22:45:41.831Z,21.30
2018-06-11T22:48:11.027Z,21.30
2018-06-11T22:50:40.355Z,21.10
2018-06-11T22:53:10.212Z,21.20
2018-06-11T22:55:40.027Z,21.20
2018-06-11T22:58:09.704Z,21.10
2018-06-11T23:00:38.904Z,21.20
2018-06-11T23:03:08.107Z,21.20
2018-06-11T23:05:37.323Z,21.20
2018-06-11T23:08:06.539Z,21.20
2018-06-11T23:10:35.738Z,21.30
2018-06-11T23:13:05.319Z,21.20
2018-06-11T23:15:34.543Z,21.20
2018-06-11T23:18:03.764Z,21.30
2018-06-11T23:20:33.271Z,21.30
2018-06-11T23:23:02.450Z,21.30
2018-06-11T23:25:31.649Z,21.30
2018-06-11T23:30:30.575Z,21.30
2018-06-11T23:32:59.747Z,21.30
2018-06-11T23:35:28.967Z,21.30
2018-06-11T23:37:58.143Z,21.30
2018-06-11T23:40:27.327Z,21.20
2018-06-11T23:42:56.921Z,21.10
2018-06-11T23:45:26.098Z,21.10
2018-06-11T23:47:55.455Z,21.10
2018-06-11T23:50:24.697Z,21.20
2018-06-11T23:52:53.894Z,21.20
2018-06-11T23:55:23.093Z,21.20
2018-06-11T23:57:52.383Z,21.10
